Time;durP1;ratioP1;P1;durP2;ratioP2;P2;SDS_P1;SDS_P2;PMS_P1;PMS_P2;Temp;Humidity;BMP_temperature;BMP_pressure;BME280_temperature;BME280_humidity;BME280_pressure;Samples;Min_cycle;Max_cycle;Signal;HPM_P1;HPM_P2
2022/05/15 00:01:20;;;;;;;10.05;2.60;;;;;;;10.60;100.00;102231.84;5069637;28;20048;-33
2022/05/15 00:03:50;;;;;;;7.55;3.28;;;;;;;10.59;100.00;102223.75;5070516;28;20052;-31
2022/05/15 00:06:18;;;;;;;6.68;2.92;;;;;;;10.55;100.00;102223.44;5068005;28;20060;-30
2022/05/15 00:08:46;;;;;;;7.88;2.90;;;;;;;10.54;100.00;102218.97;5071682;28;20406;-28
2022/05/15 00:11:17;;;;;;;7.03;2.55;;;;;;;10.53;100.00;102225.66;5070442;28;20072;-30
2022/05/15 00:13:46;;;;;;;5.47;2.50;;;;;;;10.50;100.00;102212.22;5070731;28;20067;-28
2022/05/15 00:16:14;;;;;;;5.28;2.30;;;;;;;10.49;100.00;102212.50;5071065;28;20049;-28
2022/05/15 00:18:43;;;;;;;5.68;2.30;;;;;;;10.46;100.00;102211.06;5070547;28;20080;-28
2022/05/15 00:21:13;;;;;;;5.63;2.55;;;;;;;10.43;100.00;102211.59;5071234;28;20418;-28
2022/05/15 00:23:41;;;;;;;7.80;2.67;;;;;;;10.41;100.00;102211.00;5071316;28;20474;-28
2022/05/15 00:26:09;;;;;;;7.93;2.58;;;;;;;10.39;100.00;102202.09;5070036;28;20090;-28
2022/05/15 00:28:37;;;;;;;9.30;3.22;;;;;;;10.38;100.00;102203.19;5071082;28;20371;-28
2022/05/15 00:31:05;;;;;;;6.43;2.15;;;;;;;10.37;100.00;102203.47;5071312;28;20048;-28
2022/05/15 00:33:33;;;;;;;6.03;2.50;;;;;;;10.35;100.00;102203.72;5070646;28;20055;-29
2022/05/15 00:36:01;;;;;;;7.88;2.83;;;;;;;10.37;100.00;102218.25;5071216;28;20067;-28
2022/05/15 00:38:30;;;;;;;6.45;2.60;;;;;;;10.38;100.00;102207.94;5068536;28;20489;-28
2022/05/15 00:40:58;;;;;;;11.82;3.63;;;;;;;10.40;100.00;102203.75;5071038;28;20370;-28
2022/05/15 00:43:43;;;;;;;10.50;3.40;;;;;;;10.49;100.00;102212.50;5071240;28;20037;-30
2022/05/15 00:46:15;;;;;;;13.57;4.82;;;;;;;10.50;100.00;102209.44;5070294;28;20052;-28
2022/05/15 00:48:43;;;;;;;11.82;3.65;;;;;;;10.54;100.00;102209.75;5071118;28;20444;-28
2022/05/15 00:51:17;;;;;;;11.18;4.00;;;;;;;10.58;100.00;102214.53;5070854;28;20421;-28
2022/05/15 00:53:49;;;;;;;8.80;3.13;;;;;;;10.62;100.00;102217.63;5070143;28;20048;-28
2022/05/15 00:56:20;;;;;;;8.85;3.13;;;;;;;10.63;100.00;102213.72;5071172;28;20507;-28
2022/05/15 00:58:52;;;;;;;12.57;4.20;;;;;;;10.65;100.00;102217.09;5069640;28;20040;-29
2022/05/15 01:01:20;;;;;;;9.10;3.30;;;;;;;10.64;100.00;102216.25;5068736;28;20068;-30
2022/05/15 01:03:49;;;;;;;8.63;3.13;;;;;;;10.64;100.00;102210.66;5086239;28;20049;-29
2022/05/15 01:06:17;;;;;;;10.18;3.33;;;;;;;10.63;100.00;102210.94;5070833;28;20080;-29
2022/05/15 01:08:48;;;;;;;15.02;4.70;;;;;;;10.64;100.00;102218.19;5069442;28;20147;-28
2022/05/15 01:11:19;;;;;;;8.88;3.38;;;;;;;10.66;100.00;102216.81;5059889;28;20051;-28
2022/05/15 01:13:50;;;;;;;12.05;4.18;;;;;;;10.69;100.00;102212.66;5068896;28;20489;-27
2022/05/15 01:16:21;;;;;;;16.35;4.60;;;;;;;10.73;100.00;102207.38;5070957;28;20047;-27
2022/05/15 01:18:49;;;;;;;12.43;3.40;;;;;;;10.74;100.00;102217.44;5069195;28;20052;-28
2022/05/15 01:21:26;;;;;;;16.35;4.60;;;;;;;10.74;100.00;102217.44;5068704;28;20048;-28
2022/05/15 01:23:57;;;;;;;13.23;3.85;;;;;;;10.73;100.00;102208.22;5070774;28;20420;-27
2022/05/15 01:26:25;;;;;;;10.10;4.07;;;;;;;10.73;100.00;102215.75;5069566;28;20094;-28
2022/05/15 01:28:54;;;;;;;8.15;2.92;;;;;;;10.71;100.00;102216.03;5067189;28;20127;-29
2022/05/15 01:31:25;;;;;;;12.80;4.28;;;;;;;10.69;100.00;102212.66;5085837;28;20040;-28
2022/05/15 01:33:54;;;;;;;10.40;3.00;;;;;;;10.66;100.00;102219.63;5086367;28;20063;-28
2022/05/15 01:36:25;;;;;;;12.85;3.88;;;;;;;10.63;100.00;102217.34;5069885;28;20052;-27
2022/05/15 01:38:53;;;;;;;11.43;3.95;;;;;;;10.60;100.00;102208.66;5070494;28;20502;-27
2022/05/15 01:41:21;;;;;;;10.15;3.28;;;;;;;10.57;100.00;102212.84;5072674;28;20567;-27
2022/05/15 01:43:53;;;;;;;9.30;3.10;;;;;;;10.55;100.00;102212.28;5072088;28;20525;-30
2022/05/15 01:46:25;;;;;;;11.27;3.30;;;;;;;10.54;100.00;102213.38;5066718;28;20049;-28
2022/05/15 01:48:55;;;;;;;5.68;2.50;;;;;;;10.54;100.00;102207.81;5089180;28;20048;-28
2022/05/15 01:51:26;;;;;;;7.18;2.70;;;;;;;10.54;100.00;102210.59;5072680;28;20074;-28
2022/05/15 01:53:54;;;;;;;14.60;4.28;;;;;;;10.51;100.00;102204.69;5072502;28;20143;-27
2022/05/15 01:56:22;;;;;;;10.85;3.33;;;;;;;10.49;100.00;102207.75;5073012;28;20044;-29
2022/05/15 01:58:51;;;;;;;7.60;2.78;;;;;;;10.49;100.00;102204.97;5072372;28;20557;-28
2022/05/15 02:01:19;;;;;;;8.15;2.80;;;;;;;10.45;100.00;102201.00;5072678;28;20102;-30
2022/05/15 02:03:47;;;;;;;7.43;2.47;;;;;;;10.43;100.00;102211.59;5071718;28;20048;-29
2022/05/15 02:06:15;;;;;;;5.57;2.17;;;;;;;10.40;100.00;102202.91;5073675;28;20493;-28
2022/05/15 02:08:44;;;;;;;13.98;3.00;;;;;;;10.37;100.00;102204.31;5073514;28;20381;-31
2022/05/15 02:11:12;;;;;;;9.68;3.63;;;;;;;10.34;100.00;102202.88;5071597;28;20521;-28
2022/05/15 02:13:40;;;;;;;13.23;4.00;;;;;;;10.33;100.00;102205.94;5069599;28;20128;-29
2022/05/15 02:16:08;;;;;;;9.35;3.08;;;;;;;10.31;100.00;102196.97;5072352;28;20974;-28
2022/05/15 02:18:37;;;;;;;8.73;2.95;;;;;;;10.30;100.00;102201.72;5071352;28;20048;-28
2022/05/15 02:21:05;;;;;;;6.47;2.75;;;;;;;10.29;100.00;102204.78;5071912;28;20444;-31
2022/05/15 02:23:33;;;;;;;10.43;3.13;;;;;;;10.27;100.00;102204.19;5072198;28;20052;-28
2022/05/15 02:26:03;;;;;;;9.45;2.80;;;;;;;10.27;100.00;102210.63;5071620;28;20071;-28
2022/05/15 02:28:31;;;;;;;9.00;2.47;;;;;;;10.27;100.00;102209.78;5072306;28;20074;-27
2022/05/15 02:31:01;;;;;;;10.68;2.65;;;;;;;10.27;100.00;102210.63;5071234;28;20391;-28
2022/05/15 02:33:33;;;;;;;7.28;2.45;;;;;;;10.26;100.00;102206.13;5073569;28;20054;-28
2022/05/15 02:36:01;;;;;;;11.57;2.92;;;;;;;10.25;100.00;102207.25;5072081;28;20097;-33
2022/05/15 02:38:30;;;;;;;13.70;3.33;;;;;;;10.25;100.00;102203.59;5071132;28;20103;-28
2022/05/15 02:40:58;;;;;;;7.57;2.70;;;;;;;10.24;100.00;102199.97;5073262;28;20498;-30
2022/05/15 02:43:28;;;;;;;10.55;3.45;;;;;;;10.26;100.00;102202.50;5073286;28;20078;-28
2022/05/15 02:45:57;;;;;;;9.02;3.08;;;;;;;10.26;100.00;102197.78;5072342;28;20052;-28
2022/05/15 02:51:12;;;;;;;9.52;2.97;;;;;;;10.23;100.00;102198.28;5069430;28;20630;-32
2022/05/15 02:53:42;;;;;;;10.57;3.03;;;;;;;10.23;100.00;102203.88;5070951;28;20048;-28
2022/05/15 02:56:14;;;;;;;12.90;3.33;;;;;;;10.23;100.00;102203.03;5072882;28;20091;-29
2022/05/15 02:58:43;;;;;;;8.55;2.75;;;;;;;10.21;100.00;102203.28;5073338;28;20102;-29
2022/05/15 03:01:11;;;;;;;7.80;2.70;;;;;;;10.22;100.00;102204.13;5070679;28;20105;-29
2022/05/15 03:03:40;;;;;;;8.27;2.55;;;;;;;10.23;100.00;102200.25;5071421;28;20143;-29
2022/05/15 03:06:08;;;;;;;8.07;2.85;;;;;;;10.21;100.00;102199.66;5071994;28;20547;-31
2022/05/15 03:08:42;;;;;;;6.78;2.55;;;;;;;10.19;100.00;102199.09;5072780;28;20067;-28
2022/05/15 03:11:10;;;;;;;11.88;3.20;;;;;;;10.17;100.00;102196.53;5071173;28;20381;-28
2022/05/15 03:13:39;;;;;;;10.63;3.05;;;;;;;10.15;100.00;102189.53;5072200;28;20045;-28
2022/05/15 03:16:10;;;;;;;9.48;2.78;;;;;;;10.15;100.00;102189.53;5072642;28;20048;-27
2022/05/15 03:18:41;;;;;;;5.35;2.30;;;;;;;10.13;100.00;102177.81;5072678;28;20036;-27
2022/05/15 03:21:10;;;;;;;9.13;2.88;;;;;;;10.12;100.00;102181.69;5070163;28;20049;-30
2022/05/15 03:23:39;;;;;;;9.07;2.65;;;;;;;10.13;100.00;102188.97;5070806;28;20071;-28
2022/05/15 03:26:07;;;;;;;10.85;2.45;;;;;;;10.13;100.00;102184.22;5071086;28;20049;-28
2022/05/15 03:28:35;;;;;;;9.43;2.95;;;;;;;10.14;100.00;102182.28;5070235;28;20477;-28
2022/05/15 03:31:02;;;;;;;13.70;4.03;;;;;;;10.16;100.00;102180.06;5072346;28;20044;-29
2022/05/15 03:33:32;;;;;;;13.50;3.83;;;;;;;10.17;100.00;102181.75;5072090;28;20047;-28
2022/05/15 03:35:59;;;;;;;13.50;4.18;;;;;;;10.20;100.00;102186.81;5070063;28;20064;-28
2022/05/15 03:38:27;;;;;;;15.68;3.33;;;;;;;10.21;100.00;102183.75;5070206;28;20059;-28
2022/05/15 03:40:55;;;;;;;11.05;4.18;;;;;;;10.24;100.00;102186.03;5070743;28;20513;-28
2022/05/15 03:43:23;;;;;;;10.13;3.50;;;;;;;10.26;100.00;102186.59;5068865;28;20098;-29
2022/05/15 03:45:51;;;;;;;16.65;4.30;;;;;;;10.26;100.00;102182.97;5087609;28;20048;-29
2022/05/15 03:48:19;;;;;;;16.25;4.22;;;;;;;10.27;100.00;102185.50;5070077;28;20087;-29
2022/05/15 03:50:48;;;;;;;16.17;4.75;;;;;;;10.31;100.00;102175.50;5071672;28;20053;-28
2022/05/15 03:53:15;;;;;;;15.75;4.65;;;;;;;10.35;100.00;102178.63;5072053;28;20538;-27
2022/05/15 03:55:43;;;;;;;20.50;5.10;;;;;;;10.38;100.00;102182.81;5069746;28;20060;-29
2022/05/15 03:58:11;;;;;;;16.83;4.10;;;;;;;10.40;100.00;102184.22;5070507;28;20049;-28
2022/05/15 04:00:39;;;;;;;18.67;4.63;;;;;;;10.43;100.00;102186.47;5071304;28;20052;-29
2022/05/15 04:03:07;;;;;;;12.57;4.07;;;;;;;10.45;100.00;102181.47;5070281;28;20055;-30
2022/05/15 04:05:35;;;;;;;13.63;3.60;;;;;;;10.48;100.00;102185.69;5070057;28;20101;-28
2022/05/15 04:08:05;;;;;;;14.10;4.28;;;;;;;10.48;100.00;102189.31;5071724;28;20044;-28
2022/05/15 04:10:32;;;;;;;15.57;3.85;;;;;;;10.51;100.00;102179.56;5071159;28;20139;-28
2022/05/15 04:13:00;;;;;;;18.20;4.00;;;;;;;10.52;100.00;102182.09;5071624;28;20033;-28
2022/05/15 04:15:29;;;;;;;11.90;2.97;;;;;;;10.54;100.00;102188.25;5069972;28;20658;-30
2022/05/15 04:17:56;;;;;;;14.35;3.17;;;;;;;10.55;100.00;102181.56;5070459;28;20059;-29
2022/05/15 04:20:27;;;;;;;14.85;3.25;;;;;;;10.57;100.00;102181.31;5069993;28;20139;-28
2022/05/15 04:22:56;;;;;;;8.38;2.90;;;;;;;10.58;100.00;102172.66;5070068;28;20083;-31
2022/05/15 04:25:25;;;;;;;18.45;4.57;;;;;;;10.60;100.00;102175.16;5069187;28;20055;-28
2022/05/15 04:27:53;;;;;;;16.30;4.10;;;;;;;10.63;100.00;102180.22;5086746;28;20520;-35
2022/05/15 04:30:24;;;;;;;19.08;4.38;;;;;;;10.67;100.00;102181.38;5070519;28;20060;-29
2022/05/15 04:32:52;;;;;;;11.90;3.30;;;;;;;10.68;100.00;102171.88;5069803;28;20045;-29
2022/05/15 04:35:21;;;;;;;12.02;3.05;;;;;;;10.73;100.00;102182.25;5069889;28;20059;-29
2022/05/15 04:37:50;;;;;;;12.52;3.40;;;;;;;10.77;100.00;102183.41;5070341;28;20047;-28
2022/05/15 04:40:19;;;;;;;16.15;3.55;;;;;;;10.81;100.00;102181.75;5069782;28;20059;-28
2022/05/15 04:42:49;;;;;;;22.42;4.97;;;;;;;10.84;100.00;102181.22;5070941;28;20131;-30
2022/05/15 04:45:17;;;;;;;13.73;3.40;;;;;;;10.87;100.00;102178.72;5070473;28;20055;-29
2022/05/15 04:47:46;;;;;;;15.85;3.97;;;;;;;10.91;100.00;102188.25;5071081;28;20103;-29
2022/05/15 04:50:15;;;;;;;14.88;4.13;;;;;;;10.95;100.00;102189.41;5070945;28;20045;-28
2022/05/15 04:52:43;;;;;;;10.20;3.15;;;;;;;10.98;100.00;102200.03;5070225;28;20044;-29
2022/05/15 04:55:12;;;;;;;14.23;3.47;;;;;;;11.03;100.00;102196.41;5070751;28;20048;-27
2022/05/15 04:57:39;;;;;;;16.63;3.70;;;;;;;11.07;100.00;102200.38;5070717;28;20074;-30
2022/05/15 05:00:12;;;;;;;20.40;4.38;;;;;;;11.11;100.00;102190.34;5070105;28;20040;-28
2022/05/15 05:02:41;;;;;;;15.40;3.50;;;;;;;11.15;100.00;102204.59;5070880;28;20105;-28
2022/05/15 05:05:11;;;;;;;19.30;3.90;;;;;;;11.22;100.00;102205.19;5070703;28;20474;-29
2022/05/15 05:07:39;;;;;;;19.35;4.47;;;;;;;11.28;100.00;102204.97;5069850;28;20497;-28
2022/05/15 05:10:09;;;;;;;14.95;4.20;;;;;;;11.35;100.00;102207.50;5070534;28;20036;-29
2022/05/15 05:12:37;;;;;;;18.70;4.80;;;;;;;11.40;100.00;102205.56;5071163;28;20056;-29
2022/05/15 05:15:07;;;;;;;14.10;4.00;;;;;;;11.48;100.00;102208.97;5074860;28;20087;-28
2022/05/15 05:17:36;;;;;;;15.75;3.97;;;;;;;11.52;100.00;102199.78;5074690;28;20047;-28
2022/05/15 05:20:05;;;;;;;15.07;3.75;;;;;;;11.60;100.00;102203.97;5073704;28;20048;-29
2022/05/15 05:22:33;;;;;;;18.70;3.88;;;;;;;11.65;100.00;102216.03;5074449;28;20143;-29
2022/05/15 05:25:01;;;;;;;14.70;4.07;;;;;;;11.72;100.00;102215.78;5074749;28;20041;-31
2022/05/15 05:27:28;;;;;;;19.85;4.47;;;;;;;11.78;100.00;102211.94;5073778;28;20432;-30
2022/05/15 05:29:56;;;;;;;22.17;5.50;;;;;;;11.85;100.00;102208.84;5074533;28;20052;-28
2022/05/15 05:32:24;;;;;;;16.52;4.30;;;;;;;11.91;100.00;102207.78;5071711;28;20060;-28
2022/05/15 05:34:53;;;;;;;14.50;4.47;;;;;;;11.99;100.00;102210.03;5072464;28;20056;-28
2022/05/15 05:37:21;;;;;;;15.57;3.88;;;;;;;12.04;100.00;102212.84;5070095;28;20053;-29
2022/05/15 05:39:48;;;;;;;10.68;3.40;;;;;;;12.12;100.00;102219.84;5073304;28;20052;-28
2022/05/15 05:42:16;;;;;;;24.15;4.82;;;;;;;12.18;100.00;102213.16;5072038;28;20051;-33
2022/05/15 05:44:44;;;;;;;16.40;3.83;;;;;;;12.24;100.00;102215.66;5072965;28;20047;-29
2022/05/15 05:47:12;;;;;;;15.25;4.00;;;;;;;12.31;100.00;102212.63;5073146;28;20048;-29
2022/05/15 05:49:39;;;;;;;16.35;4.43;;;;;;;12.39;100.00;102214.84;5071726;28;20052;-30
2022/05/15 05:52:09;;;;;;;22.65;5.05;;;;;;;12.45;100.00;102219.34;5068082;28;20048;-29
2022/05/15 05:54:36;;;;;;;14.65;3.60;;;;;;;12.53;100.00;102217.94;5072486;28;20429;-29
2022/05/15 05:57:05;;;;;;;13.05;4.00;;;;;;;12.58;100.00;102216.00;5072464;28;20059;-29
2022/05/15 05:59:33;;;;;;;15.93;3.78;;;;;;;12.66;100.00;102212.63;5072566;28;20052;-28
2022/05/15 06:02:00;;;;;;;16.10;4.10;;;;;;;12.72;100.00;102214.31;5071175;28;20044;-28
2022/05/15 06:04:40;;;;;;;12.98;3.78;;;;;;;12.80;100.00;102215.69;5072605;28;20552;-28
2022/05/15 06:07:13;;;;;;;17.95;4.70;;;;;;;12.89;100.00;102208.41;5071072;28;20052;-32
2022/05/15 06:09:43;;;;;;;19.27;4.22;;;;;;;12.99;100.00;102211.19;5065116;28;20051;-29
2022/05/15 06:12:13;;;;;;;13.38;3.75;;;;;;;13.11;100.00;102210.91;5070116;28;20434;-30
2022/05/15 06:14:41;;;;;;;15.98;4.30;;;;;;;13.23;100.00;102207.81;5072429;28;20059;-31
2022/05/15 06:17:09;;;;;;;17.25;4.35;;;;;;;13.35;100.00;102199.94;5071673;28;20059;-29
2022/05/15 06:19:37;;;;;;;14.95;4.13;;;;;;;13.48;100.00;102204.09;5071913;28;20047;-28
2022/05/15 06:22:06;;;;;;;17.90;3.95;;;;;;;13.66;100.00;102211.88;5071760;28;20527;-29
2022/05/15 06:24:35;;;;;;;17.38;4.13;;;;;;;13.85;100.00;102198.88;5070384;28;20048;-30
2022/05/15 06:27:03;;;;;;;14.63;3.75;;;;;;;14.09;100.00;102194.25;5072057;28;20048;-29
2022/05/15 06:29:31;;;;;;;16.33;3.75;;;;;;;14.44;100.00;102195.16;5061352;28;20063;-29
2022/05/15 06:31:59;;;;;;;14.35;3.67;;;;;;;14.90;100.00;102197.56;5071275;28;20465;-29
2022/05/15 06:34:27;;;;;;;16.08;4.30;;;;;;;15.40;100.00;102196.19;5072102;28;20059;-29
2022/05/15 06:36:55;;;;;;;16.35;4.30;;;;;;;15.88;100.00;102190.56;5071730;28;20059;-31
2022/05/15 06:39:23;;;;;;;15.20;3.72;;;;;;;16.37;100.00;102190.13;5067979;28;20087;-29
2022/05/15 06:41:56;;;;;;;10.27;3.10;;;;;;;17.00;100.00;102190.44;5072098;28;20048;-30
2022/05/15 06:44:37;;;;;;;18.33;3.88;;;;;;;17.71;100.00;102182.56;5065631;28;20130;-31
2022/05/15 06:47:06;;;;;;;13.63;3.95;;;;;;;18.34;100.00;102182.53;5071957;28;20540;-30
2022/05/15 06:49:34;;;;;;;12.43;3.80;;;;;;;18.83;100.00;102177.91;5070955;28;20053;-31
2022/05/15 06:52:02;;;;;;;14.90;3.75;;;;;;;19.14;100.00;102175.13;5069836;28;20048;-29
2022/05/15 06:54:30;;;;;;;14.38;4.18;;;;;;;19.57;99.24;102181.81;5071653;28;20048;-29
2022/05/15 06:59:44;;;;;;;12.52;3.47;;;;;;;20.60;91.38;102175.44;5071074;28;20044;-29
2022/05/15 07:02:12;;;;;;;13.25;3.53;;;;;;;20.97;85.71;102176.72;5071467;28;20051;-29
2022/05/15 07:04:40;;;;;;;13.50;3.70;;;;;;;21.07;82.92;102171.84;5071394;28;20048;-31
2022/05/15 07:07:08;;;;;;;12.40;3.50;;;;;;;21.42;82.19;102172.56;5070837;28;20055;-29
2022/05/15 07:09:36;;;;;;;12.13;3.38;;;;;;;21.71;77.14;102174.59;5068414;28;20044;-29
2022/05/15 07:12:07;;;;;;;13.18;3.42;;;;;;;21.84;76.50;102171.50;5071023;28;20507;-30
2022/05/15 07:14:37;;;;;;;10.93;3.13;;;;;;;22.27;75.32;102176.06;5071565;28;20062;-30
2022/05/15 07:17:05;;;;;;;11.15;2.97;;;;;;;22.55;70.62;102167.81;5071208;28;20051;-30
2022/05/15 07:19:37;;;;;;;13.70;3.80;;;;;;;22.71;68.76;102174.50;5070656;28;20060;-30
2022/05/15 07:22:05;;;;;;;12.95;3.90;;;;;;;22.80;65.16;102178.13;5071244;28;20375;-30
2022/05/15 07:24:33;;;;;;;12.77;3.28;;;;;;;22.98;65.94;102185.28;5071090;28;20055;-33
2022/05/15 07:27:01;;;;;;;10.60;3.50;;;;;;;23.27;62.81;102187.16;5070280;28;20048;-33
2022/05/15 07:29:30;;;;;;;11.00;3.60;;;;;;;23.39;59.69;102186.31;5070964;28;20446;-31
2022/05/15 07:31:58;;;;;;;10.95;3.20;;;;;;;23.41;59.18;102175.41;5070863;28;20044;-37
2022/05/15 07:34:27;;;;;;;9.50;3.38;;;;;;;23.75;58.34;102176.16;5070047;28;20041;-30
2022/05/15 07:36:54;;;;;;;9.27;2.85;;;;;;;24.19;56.17;102183.69;5070874;28;20563;-32
2022/05/15 07:39:22;;;;;;;9.32;3.03;;;;;;;24.51;54.34;102186.72;5071132;28;20057;-31
2022/05/15 07:41:51;;;;;;;11.23;3.33;;;;;;;24.64;51.45;102185.47;5069864;28;20055;-32
2022/05/15 07:44:19;;;;;;;10.73;3.40;;;;;;;24.67;51.33;102184.75;5070486;28;20063;-30
2022/05/15 07:46:48;;;;;;;8.82;2.83;;;;;;;25.01;51.52;102189.84;5071449;28;20123;-31
2022/05/15 07:49:17;;;;;;;10.75;3.10;;;;;;;25.17;47.95;102178.47;5069957;28;20044;-31
2022/05/15 07:51:46;;;;;;;12.57;3.25;;;;;;;24.75;46.97;102180.09;5070602;28;20044;-32
2022/05/15 07:54:15;;;;;;;11.43;2.92;;;;;;;24.57;48.35;102182.44;5067060;28;20182;-32
2022/05/15 07:56:44;;;;;;;9.13;2.92;;;;;;;24.86;47.35;102184.91;5070283;28;20126;-34
2022/05/15 07:59:12;;;;;;;11.95;3.47;;;;;;;25.30;45.65;102191.47;5070344;28;20064;-31
2022/05/15 08:01:41;;;;;;;10.02;3.20;;;;;;;25.51;45.35;102188.31;5069835;28;20143;-31
2022/05/15 08:04:11;;;;;;;9.10;2.95;;;;;;;25.52;44.27;102183.44;5069263;28;20069;-35
2022/05/15 08:09:25;;;;;;;9.38;2.53;;;;;;;26.16;43.42;102171.56;5067125;28;20075;-31
2022/05/15 08:11:57;;;;;;;11.80;3.08;;;;;;;26.67;42.71;102166.53;5070497;28;20057;-30
2022/05/15 08:14:28;;;;;;;9.77;3.08;;;;;;;27.08;41.80;102162.06;5070408;28;20051;-36
2022/05/15 08:16:55;;;;;;;11.15;3.03;;;;;;;27.50;40.70;102166.06;5069647;28;20041;-31
2022/05/15 08:24:55;;;;;;;11.63;2.63;;;;;;;26.69;39.19;102161.28;5069189;28;20045;-30
2022/05/15 08:27:23;;;;;;;10.52;2.88;;;;;;;26.27;39.69;102164.03;5070338;28;20052;-30
2022/05/15 08:29:51;;;;;;;10.55;3.08;;;;;;;26.25;40.55;102172.16;5069140;28;20083;-33
2022/05/15 08:32:19;;;;;;;9.93;2.95;;;;;;;26.46;39.98;102165.25;5069954;28;20049;-31
2022/05/15 08:34:49;;;;;;;13.43;3.58;;;;;;;26.80;39.33;102167.19;5070202;28;20428;-31
2022/05/15 08:37:16;;;;;;;11.20;3.05;;;;;;;27.21;38.77;102171.28;5069273;28;20048;-33
2022/05/15 08:39:44;;;;;;;11.60;3.15;;;;;;;27.61;37.99;102161.34;5070066;28;20060;-38
2022/05/15 08:42:20;;;;;;;10.00;2.80;;;;;;;27.65;37.25;102151.59;5069714;28;20048;-37
2022/05/15 08:44:54;;;;;;;12.10;3.63;;;;;;;27.58;37.19;102160.09;5069485;28;20407;-31
2022/05/15 08:47:31;;;;;;;10.70;3.38;;;;;;;27.15;36.71;102161.38;5069625;28;20050;-35
2022/05/15 08:50:04;;;;;;;10.73;2.53;;;;;;;26.93;38.17;102153.53;5069357;28;20044;-31
2022/05/15 08:52:39;;;;;;;8.73;2.67;;;;;;;27.22;37.88;102149.19;5069295;28;20052;-31
2022/05/15 08:55:16;;;;;;;8.98;2.55;;;;;;;27.49;35.43;102150.06;5069811;28;20047;-31
2022/05/15 08:57:51;;;;;;;9.57;2.83;;;;;;;27.40;36.62;102138.84;5069246;28;20506;-40
2022/05/15 09:00:24;;;;;;;10.10;3.05;;;;;;;27.42;36.03;102145.03;5069808;28;20480;-40
2022/05/15 09:02:54;;;;;;;12.02;3.05;;;;;;;27.35;36.18;102136.34;5069751;28;20044;-37
2022/05/15 09:05:27;;;;;;;10.38;2.70;;;;;;;27.35;36.06;102137.16;5068753;28;20048;-31
2022/05/15 09:08:11;;;;;;;6.72;2.30;;;;;;;27.51;35.64;102119.81;5067623;28;20139;-38
2022/05/15 09:10:49;;;;;;;11.18;3.13;;;;;;;27.82;35.20;102124.41;5069829;28;20052;-31
2022/05/15 09:13:26;;;;;;;10.95;3.13;;;;;;;27.85;34.19;102137.97;5068642;28;20044;-38
2022/05/15 09:15:58;;;;;;;11.20;3.25;;;;;;;27.41;34.49;102127.00;5068753;28;20068;-30
2022/05/15 09:18:28;;;;;;;9.82;3.15;;;;;;;27.19;35.57;102139.31;5069868;28;20114;-39
2022/05/15 09:21:04;;;;;;;7.30;2.50;;;;;;;27.19;36.19;102139.31;5069650;28;20040;-32
2022/05/15 09:23:34;;;;;;;10.60;2.75;;;;;;;27.38;35.07;102144.16;5070398;28;20055;-32
2022/05/15 09:26:13;;;;;;;10.90;3.28;;;;;;;26.99;34.11;102140.56;5064573;28;20458;-31
2022/05/15 09:28:45;;;;;;;10.60;2.85;;;;;;;26.88;35.71;102146.09;5070665;28;20037;-34
2022/05/15 09:31:23;;;;;;;9.32;3.05;;;;;;;27.15;35.60;102138.44;5068444;28;20052;-30
2022/05/15 09:33:56;;;;;;;10.13;3.35;;;;;;;27.41;34.25;102134.78;5067998;28;20040;-31
2022/05/15 09:36:28;;;;;;;10.73;3.28;;;;;;;27.29;35.89;102126.38;5070037;28;20509;-33
2022/05/15 09:39:14;;;;;;;10.30;2.88;;;;;;;27.17;35.27;102133.16;5069861;28;20057;-30
2022/05/15 09:44:29;;;;;;;9.68;2.70;;;;;;;27.30;35.98;102128.88;5069832;28;20056;-30
2022/05/15 09:46:59;;;;;;;10.93;3.30;;;;;;;27.36;35.30;102130.22;5069429;28;20446;-33
2022/05/15 09:49:32;;;;;;;8.73;2.55;;;;;;;27.15;35.88;102132.72;5069843;28;20045;-31
2022/05/15 09:52:07;;;;;;;13.60;3.35;;;;;;;27.10;36.04;102133.03;5069794;28;20123;-37
2022/05/15 09:54:44;;;;;;;10.00;2.88;;;;;;;27.28;36.26;102119.84;5067960;28;20129;-34
2022/05/15 09:57:21;;;;;;;9.50;2.65;;;;;;;27.66;35.11;102113.09;5069133;28;20055;-36
2022/05/15 09:59:58;;;;;;;10.27;3.13;;;;;;;27.69;34.45;102106.59;5070953;28;20049;-30
2022/05/15 10:02:27;;;;;;;10.35;3.13;;;;;;;27.66;35.22;102123.75;5071189;28;20036;-34
2022/05/15 10:04:56;;;;;;;9.55;3.28;;;;;;;27.55;34.54;102120.69;5073263;28;20056;-31
2022/05/15 10:07:35;;;;;;;11.93;3.75;;;;;;;27.39;34.96;102111.41;5073443;28;20059;-30
2022/05/15 10:10:17;;;;;;;8.70;3.10;;;;;;;27.24;34.78;102104.59;5071656;28;20055;-30
2022/05/15 10:12:48;;;;;;;11.82;3.10;;;;;;;27.22;35.84;102107.03;5073340;28;20383;-34
2022/05/15 10:15:17;;;;;;;8.45;2.88;;;;;;;27.15;34.92;102100.34;5072163;28;20746;-35
2022/05/15 10:17:51;;;;;;;12.57;3.17;;;;;;;26.80;35.54;102098.44;5072062;28;20047;-31
2022/05/15 10:20:23;;;;;;;10.00;2.95;;;;;;;26.48;35.90;102102.72;5073040;28;20055;-31
2022/05/15 10:22:58;;;;;;;9.45;2.72;;;;;;;26.38;36.74;102096.41;5072305;28;20098;-34
2022/05/15 10:25:37;;;;;;;10.63;3.33;;;;;;;26.31;35.96;102087.69;5072145;28;20059;-32
2022/05/15 10:28:20;;;;;;;12.07;3.13;;;;;;;26.38;36.86;102096.41;5072796;28;20566;-35
2022/05/15 10:30:57;;;;;;;12.45;3.35;;;;;;;26.69;36.46;102094.56;5072432;28;20039;-30
2022/05/15 10:33:25;;;;;;;7.55;2.90;;;;;;;26.96;37.02;102095.53;5073489;28;20040;-31
2022/05/15 10:36:02;;;;;;;9.38;2.75;;;;;;;27.37;36.81;102088.88;5073091;28;20490;-36
2022/05/15 10:38:41;;;;;;;11.38;3.10;;;;;;;27.58;35.64;102088.38;5072751;28;20496;-32
2022/05/15 10:41:19;;;;;;;10.18;3.15;;;;;;;27.83;35.45;102085.06;5071664;28;20442;-33
2022/05/15 10:44:02;;;;;;;11.73;3.47;;;;;;;28.04;34.80;102093.97;5071952;28;20048;-30
2022/05/15 10:46:40;;;;;;;10.63;2.90;;;;;;;27.89;34.92;102092.13;5072978;28;20048;-32
2022/05/15 10:49:20;;;;;;;10.45;3.08;;;;;;;27.96;34.70;102095.94;5072936;28;20071;-31
2022/05/15 10:51:56;;;;;;;11.48;3.00;;;;;;;28.06;34.61;102086.63;5072153;28;20057;-32
2022/05/15 10:57:26;;;;;;;7.30;2.53;;;;;;;27.61;34.56;102090.47;5068598;28;20048;-29
2022/05/15 11:00:00;;;;;;;8.90;2.70;;;;;;;27.34;35.00;102086.78;5069869;28;20188;-32
2022/05/15 11:02:56;;;;;;;9.20;2.70;;;;;;;27.38;34.75;102078.19;5073034;28;20073;-31
2022/05/15 11:05:28;;;;;;;9.38;2.75;;;;;;;27.69;35.11;102080.78;5072122;28;20066;-35
2022/05/15 11:08:05;;;;;;;9.15;2.72;;;;;;;28.12;34.11;102079.34;5072744;28;20049;-29
2022/05/15 11:10:39;;;;;;;10.68;2.80;;;;;;;28.45;34.75;102064.19;5072264;28;20409;-35
2022/05/15 11:13:12;;;;;;;10.05;3.20;;;;;;;28.41;35.09;102057.56;5071649;28;20045;-30
2022/05/15 11:15:49;;;;;;;10.32;2.55;;;;;;;28.56;34.56;102064.31;5072377;28;20048;-31
2022/05/15 11:18:32;;;;;;;9.43;2.75;;;;;;;28.69;33.52;102059.09;5071287;28;20048;-34
2022/05/15 11:21:05;;;;;;;9.32;2.92;;;;;;;28.87;33.80;102060.13;5071361;28;20040;-29
2022/05/15 11:23:42;;;;;;;12.35;3.70;;;;;;;29.01;33.92;102045.06;5072214;28;20047;-30
2022/05/15 11:26:17;;;;;;;9.70;3.13;;;;;;;29.13;33.49;102048.47;5070611;28;20135;-39
2022/05/15 11:28:49;;;;;;;11.60;3.40;;;;;;;29.06;33.63;102041.81;5072137;28;20080;-32
2022/05/15 11:31:21;;;;;;;10.38;2.85;;;;;;;28.93;33.83;102049.09;5071319;28;20131;-33
2022/05/15 11:33:52;;;;;;;9.73;3.13;;;;;;;28.92;34.56;102030.22;5071198;28;20580;-35
2022/05/15 11:36:36;;;;;;;7.03;2.58;;;;;;;29.13;34.32;102045.59;5071956;28;20041;-38
2022/05/15 11:39:26;;;;;;;7.28;2.58;;;;;;;29.20;33.88;102036.19;5070910;28;20056;-30
2022/05/15 11:42:17;;;;;;;7.63;2.47;;;;;;;29.26;34.12;102040.34;5069018;28;20474;-32
2022/05/15 11:44:47;;;;;;;10.07;3.00;;;;;;;29.41;34.04;102036.38;5069741;28;20051;-39
2022/05/15 11:47:32;;;;;;;7.22;2.55;;;;;;;29.53;32.96;102023.72;5070994;28;20033;-33
2022/05/15 11:50:14;;;;;;;10.50;3.45;;;;;;;29.46;33.69;102035.16;5070425;28;20312;-31